Airfield :







YOU CAN JOIN US ON...

 
LOGIN :

Register | Disclaimer

   EN    FR    IT 

 









Legend :    VFR   Marginal VFR   IFR   Intensive IFR   Very Intensive IFR
Visi :
Ceiling :
>= 8 km
>= 3000ft
5 to 8 km
1000 to 3000 ft
1500m to 5 km
500 to 1000 ft
800 to 1500m
200 to 500 ft
< 800m
< 200 ft
Symbols :   Thunderstorms  Fog  Heavy snow  Heavy precipitations  Wind > 20 kt






- Airport Elevation : 203 ft
- IATA code : YQY


CYQY - Sydney

CURRENT METAR :
  • 070800Z 03008KT 1 1/2SM -DZ BR OVC002 12/12 A2985 RMK ST8 CIG ESTD SLP110

EXPIRED METARs :
  • 070700Z 02006KT 1 1/2SM -RA BR OVC002 12/12 A2984 RMK SC8 SLP108
  • 070600Z 03005KT 1 1/2SM -RA BR OVC002 12/12 A2984 RMK SC8 SLP106

TAF TAF CYQY
Valid from the 07 at 06:00 until the 07 at 18:00 UTC


070540Z 0706/0718 06008KT 1SM -RA BR OVC002
TEMPO 0706/0709 3SM BR SCT002 OVC006
FM070900 04008KT 1/2SM -DZ FG VV002
TEMPO 0709/0714 2SM BR SCT002 OVC006
PROB30 0709/0714 1/4SM FG VV001
FM071400 04010KT 2SM -DZ BR OVC005
BECMG 0714/0716 P6SM NSW SCT005 OVC012 RMK NXT FCST BY 071200Z
CZQM FIR / North America



MET'MAP, your aeronautical weather chart ! - Copyright ORBIFLY December 2007 - Disclaimer

ORBIFLY MET'MAP TEAM :

Programming & Development : Alexandra Zaïnal
Original concept : Baudouin d'Aumeries
Technical & hardware support : Manuel Goepfert
Assistance : Marc-Olivier Méhu




SOURCES & CREDITS :

   NOAA